Time;durP1;ratioP1;P1;durP2;ratioP2;P2;SDS_P1;SDS_P2;PMS_P1;PMS_P2;Temp;Humidity;BMP_temperature;BMP_pressure;BME280_temperature;BME280_humidity;BME280_pressure;Samples;Min_cycle;Max_cycle;Signal;HPM_P1;HPM_P2
2024/03/23 00:01:43;;;;;;;0.00;0.00;;;;;;;4.65;100.00;100424.34;6175570;23;20047;-74
2024/03/23 00:04:12;;;;;;;0.00;0.00;;;;;;;4.67;100.00;100419.53;6179068;23;20012;-74
2024/03/23 00:06:39;;;;;;;0.00;0.00;;;;;;;4.60;100.00;100426.91;6209019;23;20001;-73
2024/03/23 00:09:06;;;;;;;0.00;0.00;;;;;;;4.50;100.00;100426.63;6157640;23;20742;-74
2024/03/23 00:11:32;;;;;;;0.00;0.00;;;;;;;4.29;100.00;100423.31;6183493;23;20023;-74
2024/03/23 00:13:59;;;;;;;0.10;0.10;;;;;;;4.11;100.00;100428.69;6207060;23;20078;-73
2024/03/23 00:16:26;;;;;;;0.10;0.10;;;;;;;4.01;100.00;100430.00;6202984;22;20016;-74
2024/03/23 00:18:52;;;;;;;0.00;0.00;;;;;;;3.89;100.00;100426.38;6210130;23;20036;-73
2024/03/23 00:21:19;;;;;;;0.00;0.00;;;;;;;3.82;100.00;100428.31;6210521;23;20008;-73
2024/03/23 00:23:46;;;;;;;0.00;0.00;;;;;;;3.76;100.00;100426.50;6207519;23;20005;-74
2024/03/23 00:26:12;;;;;;;0.00;0.00;;;;;;;3.75;100.00;100422.13;6181640;23;20448;-74
2024/03/23 00:28:38;;;;;;;0.00;0.00;;;;;;;3.82;100.00;100422.91;6157880;23;20004;-73
2024/03/23 00:31:05;;;;;;;0.00;0.00;;;;;;;3.85;100.00;100425.16;6181879;23;20005;-74
2024/03/23 00:33:31;;;;;;;0.00;0.00;;;;;;;3.91;100.00;100413.44;6182525;23;20015;-75
2024/03/23 00:35:58;;;;;;;0.00;0.00;;;;;;;3.86;100.00;100415.19;6180398;23;20092;-73
2024/03/23 00:38:24;;;;;;;0.00;0.00;;;;;;;3.87;100.00;100423.09;6184295;23;20396;-73
2024/03/23 00:40:54;;;;;;;0.10;0.10;;;;;;;3.85;100.00;100425.16;6180235;23;20012;-73
2024/03/23 00:43:22;;;;;;;0.00;0.00;;;;;;;3.79;100.00;100415.22;6161179;23;20005;-73
2024/03/23 00:45:49;;;;;;;0.10;0.10;;;;;;;3.74;100.00;100417.75;6154754;23;20005;-73
2024/03/23 00:48:15;;;;;;;0.00;0.00;;;;;;;3.70;100.00;100422.78;6183874;23;20014;-71
2024/03/23 00:50:42;;;;;;;0.00;0.00;;;;;;;3.66;100.00;100405.34;6209466;23;20007;-71
2024/03/23 00:53:08;;;;;;;0.10;0.10;;;;;;;3.66;100.00;100408.91;6156295;23;20000;-73
2024/03/23 00:55:34;;;;;;;0.00;0.00;;;;;;;3.53;100.00;100408.97;6159251;23;20461;-74
2024/03/23 00:57:59;;;;;;;0.00;0.00;;;;;;;3.55;100.00;100404.19;6131729;23;20027;-71
2024/03/23 01:00:25;;;;;;;0.00;0.00;;;;;;;3.65;100.00;100409.94;6134829;23;20017;-72
2024/03/23 01:02:50;;;;;;;0.00;0.00;;;;;;;3.72;100.00;100401.75;6179688;23;20001;-72
2024/03/23 01:05:16;;;;;;;0.00;0.00;;;;;;;3.74;100.00;100396.13;6184036;23;20012;-73
2024/03/23 01:07:41;;;;;;;0.00;0.00;;;;;;;3.71;100.00;100385.75;6134507;23;20013;-72
2024/03/23 01:10:07;;;;;;;0.00;0.00;;;;;;;3.69;100.00;100382.44;6206082;23;20008;-73
2024/03/23 01:12:32;;;;;;;0.10;0.10;;;;;;;3.70;100.00;100379.53;6159689;23;20004;-78
2024/03/23 01:14:57;;;;;;;0.00;0.00;;;;;;;3.72;100.00;100373.88;6181643;23;20053;-77
2024/03/23 01:17:23;;;;;;;0.00;0.00;;;;;;;3.73;100.00;100370.16;6134899;23;20013;-76
2024/03/23 01:19:48;;;;;;;0.00;0.00;;;;;;;3.85;100.00;100371.06;6134661;23;20031;-77
2024/03/23 01:22:14;;;;;;;0.00;0.00;;;;;;;3.80;100.00;100358.19;6156671;23;20000;-79
2024/03/23 01:24:42;;;;;;;0.00;0.00;;;;;;;3.92;100.00;100371.81;6184761;23;20008;-77
2024/03/23 01:27:08;;;;;;;0.00;0.00;;;;;;;3.94;100.00;100375.16;6155062;23;20005;-77
2024/03/23 01:29:34;;;;;;;0.00;0.00;;;;;;;4.04;100.00;100374.59;6210370;23;19996;-74
2024/03/23 01:31:59;;;;;;;0.00;0.00;;;;;;;4.10;100.00;100368.28;6178503;23;20016;-74
2024/03/23 01:34:25;;;;;;;0.00;0.00;;;;;;;4.12;100.00;100376.22;6207773;23;20005;-74
2024/03/23 01:36:51;;;;;;;0.00;0.00;;;;;;;4.18;100.00;100369.91;6155891;23;20055;-72
2024/03/23 01:39:16;;;;;;;0.00;0.00;;;;;;;4.19;100.00;100366.13;6207850;23;20004;-74
2024/03/23 01:41:42;;;;;;;0.00;0.00;;;;;;;4.25;100.00;100370.66;6183760;23;20028;-73
2024/03/23 01:44:08;;;;;;;0.00;0.00;;;;;;;4.29;100.00;100361.03;6152457;23;20040;-73
2024/03/23 01:46:36;;;;;;;0.00;0.00;;;;;;;4.34;100.00;100363.88;6157946;23;20005;-73
2024/03/23 01:49:02;;;;;;;0.00;0.00;;;;;;;4.46;100.00;100371.25;6178612;23;20001;-74
2024/03/23 01:51:29;;;;;;;0.00;0.00;;;;;;;4.45;100.00;100358.75;6207603;23;20008;-73
2024/03/23 01:53:56;;;;;;;0.00;0.00;;;;;;;4.54;100.00;100368.22;6178423;23;20011;-75
2024/03/23 01:56:22;;;;;;;0.00;0.00;;;;;;;4.50;100.00;100346.19;6206178;23;20007;-73
2024/03/23 01:58:47;;;;;;;0.00;0.00;;;;;;;4.56;100.00;100355.28;6209647;23;20012;-72
2024/03/23 02:01:13;;;;;;;0.00;0.00;;;;;;;4.54;100.00;100354.66;6205276;23;20490;-73
2024/03/23 02:03:38;;;;;;;0.00;0.00;;;;;;;4.47;100.00;100354.78;6182900;23;20134;-77
2024/03/23 02:06:04;;;;;;;0.00;0.00;;;;;;;4.37;100.00;100355.31;6156329;23;20012;-76
2024/03/23 02:08:31;;;;;;;0.00;0.00;;;;;;;4.34;100.00;100357.66;6159435;23;20016;-77
2024/03/23 02:10:56;;;;;;;0.00;0.00;;;;;;;4.23;100.00;100351.09;6182604;23;20095;-74
2024/03/23 02:13:21;;;;;;;0.00;0.00;;;;;;;4.12;100.00;100355.38;6179149;23;20044;-75
2024/03/23 02:15:47;;;;;;;0.00;0.00;;;;;;;4.10;100.00;100340.41;6183012;23;20005;-74
2024/03/23 02:18:13;;;;;;;0.00;0.00;;;;;;;4.23;100.00;100367.31;6156082;23;20112;-73
2024/03/23 02:20:39;;;;;;;0.00;0.00;;;;;;;4.22;100.00;100352.16;6183159;23;20475;-73
2024/03/23 02:23:07;;;;;;;0.10;0.10;;;;;;;4.23;100.00;100348.38;6183867;23;20012;-74
2024/03/23 02:25:33;;;;;;;0.00;0.00;;;;;;;4.29;100.00;100350.22;6155697;23;20009;-74
2024/03/23 02:27:59;;;;;;;0.00;0.00;;;;;;;4.23;100.00;100351.09;6183049;23;21056;-73
2024/03/23 02:30:25;;;;;;;0.00;0.00;;;;;;;4.33;100.00;100355.97;6179634;23;20020;-74
2024/03/23 02:32:51;;;;;;;0.00;0.00;;;;;;;4.31;100.00;100347.28;6157964;23;20012;-74
2024/03/23 02:35:16;;;;;;;0.10;0.10;;;;;;;4.36;100.00;100339.28;6207214;23;20004;-75
2024/03/23 02:37:46;;;;;;;0.00;0.00;;;;;;;4.29;99.51;100328.56;6158169;23;20008;-76
2024/03/23 02:40:15;;;;;;;0.00;0.00;;;;;;;4.34;99.75;100347.63;6211205;23;20012;-77
2024/03/23 02:42:41;;;;;;;0.10;0.10;;;;;;;4.35;98.41;100349.28;6157664;23;20043;-73
2024/03/23 02:45:09;;;;;;;0.00;0.00;;;;;;;4.30;99.14;100351.03;6160520;23;20008;-74
2024/03/23 02:47:35;;;;;;;0.00;0.00;;;;;;;4.26;99.09;100339.00;6183391;23;20013;-74
2024/03/23 02:50:04;;;;;;;0.00;0.00;;;;;;;4.28;99.37;100343.13;6182065;23;20053;-73
2024/03/23 02:52:30;;;;;;;0.00;0.00;;;;;;;4.23;99.87;100336.75;6182421;23;20020;-74
2024/03/23 02:54:56;;;;;;;0.00;0.00;;;;;;;4.28;100.00;100326.88;6157973;23;20034;-73
2024/03/23 02:57:21;;;;;;;0.00;0.00;;;;;;;4.31;99.86;100334.56;6180627;23;20467;-74
2024/03/23 02:59:47;;;;;;;0.00;0.00;;;;;;;4.39;99.65;100340.72;6210397;23;20427;-72
2024/03/23 03:02:13;;;;;;;0.00;0.00;;;;;;;4.35;98.90;100343.88;6180817;23;20008;-73
2024/03/23 03:04:39;;;;;;;0.00;0.00;;;;;;;4.28;99.40;100340.41;6179507;23;20013;-72
2024/03/23 03:07:04;;;;;;;0.00;0.00;;;;;;;4.39;99.54;100349.66;6180543;23;20036;-72
2024/03/23 03:09:34;;;;;;;0.00;0.00;;;;;;;4.43;98.51;100347.34;6208888;23;20051;-72
2024/03/23 03:12:03;;;;;;;0.00;0.00;;;;;;;4.42;97.80;100337.56;6159565;23;20454;-74
2024/03/23 03:14:28;;;;;;;0.00;0.00;;;;;;;4.41;98.15;100352.13;6207659;23;20434;-72
2024/03/23 03:16:54;;;;;;;0.00;0.00;;;;;;;4.35;98.90;100349.28;6180081;23;20009;-75
2024/03/23 03:19:19;;;;;;;0.00;0.00;;;;;;;4.32;99.28;100347.03;6159525;23;20363;-77
2024/03/23 03:21:48;;;;;;;0.00;0.00;;;;;;;4.37;99.85;100352.59;6153101;23;20440;-76
2024/03/23 03:24:13;;;;;;;0.00;0.00;;;;;;;4.34;98.96;100352.22;6182923;23;20005;-74
2024/03/23 03:26:41;;;;;;;0.00;0.00;;;;;;;4.24;99.21;100336.50;6206227;23;20227;-74
2024/03/23 03:29:07;;;;;;;0.00;0.00;;;;;;;4.09;99.81;100312.53;6180931;23;20324;-74
2024/03/23 03:31:36;;;;;;;0.00;0.00;;;;;;;4.24;100.00;100347.34;6180608;23;20012;-74
2024/03/23 03:34:02;;;;;;;0.00;0.00;;;;;;;4.17;99.90;100346.59;6132086;23;20066;-74
2024/03/23 03:36:27;;;;;;;0.10;0.10;;;;;;;4.12;100.00;100349.16;6134165;23;20007;-73
2024/03/23 03:38:53;;;;;;;0.00;0.00;;;;;;;4.13;100.00;100345.38;6155634;23;20005;-73
2024/03/23 03:41:19;;;;;;;0.00;0.00;;;;;;;4.17;100.00;100346.59;6131651;23;20004;-74
2024/03/23 03:43:47;;;;;;;0.00;0.00;;;;;;;4.09;100.00;100333.34;6180240;23;20156;-73
2024/03/23 03:46:12;;;;;;;0.00;0.00;;;;;;;4.00;100.00;100335.50;6206630;22;20031;-74
2024/03/23 03:48:41;;;;;;;0.08;0.08;;;;;;;4.00;100.00;100336.38;6152194;23;20335;-73
2024/03/23 03:51:07;;;;;;;0.00;0.00;;;;;;;3.87;100.00;100316.72;6133748;23;20009;-72
2024/03/23 03:53:32;;;;;;;0.00;0.00;;;;;;;3.98;100.00;100327.63;6152778;23;20067;-74
2024/03/23 03:56:01;;;;;;;0.00;0.00;;;;;;;4.00;100.00;100347.19;6179931;23;20005;-73
2024/03/23 03:58:27;;;;;;;0.00;0.00;;;;;;;3.97;100.00;100331.41;6208013;23;20448;-72
2024/03/23 04:00:52;;;;;;;0.00;0.00;;;;;;;3.99;100.00;100340.13;6151169;23;20021;-72
2024/03/23 04:03:21;;;;;;;0.00;0.00;;;;;;;3.90;100.00;100327.94;6182057;23;20012;-72
2024/03/23 04:05:56;;;;;;;0.00;0.00;;;;;;;3.94;100.00;100337.28;6154930;23;21065;-71
2024/03/23 04:08:21;;;;;;;0.00;0.00;;;;;;;3.91;100.00;100326.88;6181228;23;20423;-72
2024/03/23 04:10:50;;;;;;;0.00;0.00;;;;;;;3.90;100.00;100329.81;6180735;23;20146;-72
2024/03/23 04:13:16;;;;;;;0.10;0.10;;;;;;;3.91;100.00;100336.88;6158215;23;20008;-75
2024/03/23 04:15:41;;;;;;;0.00;0.00;;;;;;;3.75;100.00;100311.22;6182965;23;20075;-76
2024/03/23 04:18:08;;;;;;;0.00;0.00;;;;;;;3.83;100.00;100329.88;6206144;23;20080;-75
2024/03/23 04:20:33;;;;;;;0.00;0.00;;;;;;;3.77;100.00;100326.19;6159434;23;20406;-76
2024/03/23 04:23:01;;;;;;;0.00;0.00;;;;;;;3.72;100.00;100325.19;6208652;23;20008;-75
2024/03/23 04:25:27;;;;;;;0.00;0.00;;;;;;;3.78;99.84;100322.44;6183981;23;20012;-75
2024/03/23 04:27:52;;;;;;;0.10;0.10;;;;;;;3.85;98.32;100327.78;6158130;23;20013;-75
2024/03/23 04:30:19;;;;;;;0.00;0.00;;;;;;;3.88;97.96;100321.91;6182758;23;20013;-74
2024/03/23 04:32:44;;;;;;;0.00;0.00;;;;;;;3.92;97.56;100319.59;6183971;23;20008;-76
2024/03/23 04:35:12;;;;;;;0.00;0.00;;;;;;;3.94;97.02;100321.03;6156805;23;20012;-77
2024/03/23 04:37:40;;;;;;;0.00;0.00;;;;;;;3.96;97.05;100318.91;6184949;23;20015;-73
2024/03/23 04:40:07;;;;;;;0.00;0.00;;;;;;;4.02;97.23;100323.41;6179737;23;20015;-72
2024/03/23 04:42:32;;;;;;;0.00;0.00;;;;;;;4.00;97.08;100324.69;6181757;23;20028;-72
2024/03/23 04:44:58;;;;;;;0.10;0.10;;;;;;;4.02;96.39;100323.41;6158604;23;20044;-72
2024/03/23 04:47:23;;;;;;;0.00;0.00;;;;;;;4.00;96.65;100330.09;6182535;23;20000;-71
2024/03/23 04:49:49;;;;;;;0.00;0.00;;;;;;;3.96;96.40;100329.75;6160532;23;20016;-72
2024/03/23 04:52:15;;;;;;;0.00;0.00;;;;;;;3.91;97.08;100310.63;6157088;23;20012;-72
2024/03/23 04:54:40;;;;;;;0.00;0.00;;;;;;;4.00;96.83;100324.69;6160064;23;20089;-72
2024/03/23 04:57:06;;;;;;;0.00;0.00;;;;;;;3.77;97.46;100312.66;6183429;23;20499;-71
2024/03/23 04:59:33;;;;;;;0.00;0.00;;;;;;;3.78;98.32;100324.31;6185097;23;20386;-72
2024/03/23 05:02:02;;;;;;;0.10;0.10;;;;;;;3.78;98.60;100332.41;6209136;23;20087;-72
2024/03/23 05:04:28;;;;;;;0.00;0.00;;;;;;;3.68;99.71;100316.72;6160812;23;20063;-72
2024/03/23 05:06:55;;;;;;;0.00;0.00;;;;;;;3.56;100.00;100323.91;6133323;23;20012;-72
2024/03/23 05:09:21;;;;;;;0.00;0.00;;;;;;;3.43;100.00;100320.28;6182867;23;20038;-73
2024/03/23 05:11:46;;;;;;;0.00;0.00;;;;;;;3.28;100.00;100307.06;6211380;23;20070;-72
2024/03/23 05:14:15;;;;;;;0.00;0.00;;;;;;;3.16;100.00;100298.03;6157595;23;20502;-72
2024/03/23 05:16:40;;;;;;;0.00;0.00;;;;;;;3.10;100.00;100310.53;6160088;23;20011;-72
2024/03/23 05:19:06;;;;;;;0.00;0.00;;;;;;;3.10;100.00;100315.13;6211656;23;20008;-72
2024/03/23 05:21:31;;;;;;;0.00;0.00;;;;;;;3.02;100.00;100297.28;6188492;23;20327;-73
2024/03/23 05:23:57;;;;;;;0.00;0.00;;;;;;;2.93;100.00;100304.84;6163820;23;20031;-73
2024/03/23 05:26:22;;;;;;;0.00;0.00;;;;;;;2.86;100.00;100295.97;6163228;23;20015;-73
2024/03/23 05:28:48;;;;;;;0.00;0.00;;;;;;;2.75;100.00;100299.38;6164207;23;20008;-72
2024/03/23 05:31:25;;;;;;;0.00;0.00;;;;;;;2.60;100.00;100300.50;6188396;23;20012;-72
2024/03/23 05:33:51;;;;;;;0.10;0.10;;;;;;;2.56;100.00;100290.34;6188294;23;20027;-72
2024/03/23 05:36:17;;;;;;;0.00;0.00;;;;;;;2.49;100.00;100292.25;6215534;23;20423;-73
2024/03/23 05:38:43;;;;;;;0.00;0.00;;;;;;;2.33;100.00;100285.47;6213446;23;20009;-72
2024/03/23 05:41:08;;;;;;;0.00;0.00;;;;;;;2.30;100.00;100294.00;6162506;23;20012;-73
2024/03/23 05:43:33;;;;;;;0.10;0.10;;;;;;;2.19;100.00;100288.25;6188187;23;20040;-72
2024/03/23 05:46:01;;;;;;;0.00;0.00;;;;;;;2.24;100.00;100301.09;6188816;23;20040;-72
2024/03/23 05:48:27;;;;;;;0.00;0.00;;;;;;;2.22;100.00;100298.59;6187946;23;20253;-73
2024/03/23 05:50:53;;;;;;;0.10;0.10;;;;;;;2.19;100.00;100288.25;6211383;23;20411;-73
2024/03/23 05:53:22;;;;;;;0.10;0.10;;;;;;;2.19;100.00;100296.34;6211231;23;20004;-72
2024/03/23 05:55:48;;;;;;;0.10;0.10;;;;;;;2.23;100.00;100289.47;6184321;23;20446;-72
2024/03/23 05:58:16;;;;;;;0.00;0.00;;;;;;;2.21;100.00;100285.31;6210695;23;19996;-73
2024/03/23 06:00:42;;;;;;;0.00;0.00;;;;;;;2.05;100.00;100259.66;6172345;23;20088;-72
2024/03/23 06:03:08;;;;;;;0.00;0.00;;;;;;;2.13;100.00;100288.25;6129395;23;20009;-72
2024/03/23 06:05:33;;;;;;;0.00;0.00;;;;;;;2.13;100.00;100286.38;6148649;23;20075;-73
2024/03/23 06:07:59;;;;;;;0.10;0.10;;;;;;;2.13;100.00;100294.47;6153393;23;20048;-72
2024/03/23 06:10:24;;;;;;;0.00;0.00;;;;;;;2.07;100.00;100273.75;6177110;23;20013;-73
2024/03/23 06:12:51;;;;;;;0.00;0.00;;;;;;;2.17;100.00;100284.09;6152178;23;20001;-72
2024/03/23 06:15:18;;;;;;;0.05;0.05;;;;;;;2.08;100.00;100270.03;6155671;23;20092;-73
2024/03/23 06:17:43;;;;;;;0.00;0.00;;;;;;;2.11;100.00;100274.97;6178864;23;20005;-72
2024/03/23 06:20:12;;;;;;;0.10;0.10;;;;;;;2.11;100.00;100274.16;6154170;23;20458;-71
2024/03/23 06:22:38;;;;;;;0.00;0.00;;;;;;;2.13;100.00;100278.28;6154374;23;20084;-72
2024/03/23 06:25:03;;;;;;;0.00;0.00;;;;;;;2.19;100.00;100277.44;6129606;23;20091;-72
2024/03/23 06:27:29;;;;;;;0.10;0.10;;;;;;;2.30;100.00;100272.41;6152454;23;20012;-71
2024/03/23 06:29:54;;;;;;;0.00;0.00;;;;;;;2.30;100.00;100265.13;6129623;23;20063;-72
2024/03/23 06:32:20;;;;;;;0.00;0.00;;;;;;;2.36;100.00;100266.16;6130950;23;20313;-71
2024/03/23 06:34:45;;;;;;;0.00;0.00;;;;;;;2.49;100.00;100260.69;6128204;23;20424;-72
2024/03/23 06:37:11;;;;;;;0.10;0.10;;;;;;;2.55;100.00;100254.41;6153093;23;20014;-71
2024/03/23 06:39:37;;;;;;;0.00;0.00;;;;;;;2.69;100.00;100267.84;6129088;23;20008;-71
2024/03/23 06:42:03;;;;;;;0.10;0.10;;;;;;;2.77;100.00;100270.25;6152850;23;20367;-71
2024/03/23 06:44:28;;;;;;;0.10;0.10;;;;;;;2.92;100.00;100270.78;6127837;23;20001;-71
2024/03/23 06:46:54;;;;;;;0.00;0.00;;;;;;;2.97;100.00;100275.53;6123574;23;20009;-72
2024/03/23 06:49:38;;;;;;;0.00;0.00;;;;;;;2.97;100.00;100254.75;6152415;23;20008;-75
2024/03/23 06:52:06;;;;;;;0.00;0.00;;;;;;;3.13;100.00;100249.84;6176043;23;20005;-77
2024/03/23 06:54:31;;;;;;;0.10;0.10;;;;;;;3.31;100.00;100258.00;6128407;23;20024;-78
2024/03/23 06:56:57;;;;;;;0.08;0.08;;;;;;;3.48;100.00;100257.41;6151792;23;20009;-73
2024/03/23 06:59:22;;;;;;;0.00;0.00;;;;;;;3.66;100.00;100257.44;6186762;23;20338;-75
2024/03/23 07:01:50;;;;;;;0.00;0.00;;;;;;;3.83;100.00;100259.56;6180242;23;20015;-73
2024/03/23 07:04:15;;;;;;;0.00;0.00;;;;;;;4.00;100.00;100263.31;6207234;23;20008;-73
2024/03/23 07:06:44;;;;;;;0.00;0.00;;;;;;;4.16;100.00;100247.47;6208755;23;20019;-72
2024/03/23 07:09:10;;;;;;;0.00;0.00;;;;;;;4.25;100.00;100246.13;6177962;23;20024;-72
2024/03/23 07:11:38;;;;;;;0.00;0.00;;;;;;;4.19;100.00;100225.38;6183262;23;20445;-74
2024/03/23 07:14:03;;;;;;;0.00;0.00;;;;;;;4.32;100.00;100241.47;6207783;23;20000;-73
2024/03/23 07:16:29;;;;;;;0.00;0.00;;;;;;;4.31;100.00;100223.56;6181445;23;20045;-73
2024/03/23 07:18:55;;;;;;;0.00;0.00;;;;;;;4.50;100.00;100218.91;6132367;23;20011;-73
2024/03/23 07:21:20;;;;;;;0.00;0.00;;;;;;;4.54;100.00;100211.97;6180771;23;20015;-72
2024/03/23 07:23:48;;;;;;;0.10;0.10;;;;;;;4.62;100.00;100197.28;6209623;23;20016;-73
2024/03/23 07:26:14;;;;;;;0.00;0.00;;;;;;;4.84;100.00;100215.69;6206399;23;20016;-73
2024/03/23 07:28:43;;;;;;;0.00;0.00;;;;;;;4.93;100.00;100210.75;6181705;23;20016;-75
2024/03/23 07:31:14;;;;;;;0.00;0.00;;;;;;;4.98;100.00;100203.59;6156194;23;20019;-72
2024/03/23 07:33:49;;;;;;;0.00;0.00;;;;;;;5.13;100.00;100213.97;6181323;23;20009;-72
2024/03/23 07:36:15;;;;;;;0.00;0.00;;;;;;;5.28;100.00;100210.78;6178836;23;20021;-72
2024/03/23 07:38:41;;;;;;;0.00;0.00;;;;;;;5.45;100.00;100218.19;6155061;23;20122;-71
2024/03/23 07:41:07;;;;;;;0.00;0.00;;;;;;;5.56;98.83;100214.63;6178598;23;20008;-72
2024/03/23 07:43:41;;;;;;;0.10;0.10;;;;;;;5.62;97.38;100210.97;6211505;23;20007;-73
2024/03/23 07:46:07;;;;;;;0.00;0.00;;;;;;;5.66;96.75;100230.31;6181374;23;20420;-74
2024/03/23 07:48:33;;;;;;;0.00;0.00;;;;;;;5.73;97.71;100225.59;6178291;23;20020;-73
2024/03/23 07:51:08;;;;;;;0.00;0.00;;;;;;;5.85;96.96;100231.00;6158747;23;20005;-74
2024/03/23 07:53:34;;;;;;;0.03;0.03;;;;;;;6.22;95.55;100225.25;6180601;23;20001;-75
2024/03/23 07:56:06;;;;;;;0.00;0.00;;;;;;;6.45;93.63;100219.72;6184631;23;20449;-76
2024/03/23 07:58:32;;;;;;;0.00;0.00;;;;;;;6.33;90.18;100215.41;6183593;23;20010;-77
2024/03/23 08:01:05;;;;;;;0.00;0.00;;;;;;;6.29;91.44;100212.34;6152848;23;20435;-81
2024/03/23 08:03:31;;;;;;;0.00;0.00;;;;;;;6.32;91.72;100209.13;6179268;23;20063;-78
2024/03/23 08:05:57;;;;;;;0.00;0.00;;;;;;;6.85;90.18;100217.13;6178954;23;20009;-79
2024/03/23 08:08:25;;;;;;;0.00;0.00;;;;;;;7.72;85.58;100212.16;6181352;23;20208;-78
2024/03/23 08:10:51;;;;;;;0.00;0.00;;;;;;;8.62;79.30;100184.59;6152097;23;20036;-79
2024/03/23 08:13:42;;;;;;;;;;;;;;;;;;;;;
2024/03/23 08:16:13;;;;;;;0.00;0.00;;;;;;;10.90;66.18;100205.31;6175240;23;20085;-80
2024/03/23 08:18:46;;;;;;;0.00;0.00;;;;;;;11.86;62.09;100234.72;6154890;23;20093;-78
2024/03/23 08:21:11;;;;;;;0.00;0.00;;;;;;;12.74;58.55;100227.69;6176155;23;20089;-79
2024/03/23 08:23:40;;;;;;;0.00;0.00;;;;;;;13.65;55.35;100215.38;6179291;23;20024;-79
2024/03/23 08:26:16;;;;;;;0.00;0.00;;;;;;;14.15;53.08;100217.84;6177979;23;20074;-78
2024/03/23 08:28:41;;;;;;;0.10;0.10;;;;;;;14.95;50.29;100223.56;6154279;23;20009;-77
2024/03/23 08:31:12;;;;;;;0.00;0.00;;;;;;;15.53;49.11;100216.78;6153389;23;20012;-76
2024/03/23 08:33:42;;;;;;;0.00;0.00;;;;;;;15.91;47.11;100213.06;6179656;23;20420;-78
2024/03/23 08:36:17;;;;;;;0.00;0.00;;;;;;;15.92;45.87;100229.28;6151536;23;20005;-77
2024/03/23 08:38:46;;;;;;;0.00;0.00;;;;;;;16.29;45.41;100218.31;6152591;23;20035;-79
2024/03/23 08:41:14;;;;;;;0.00;0.00;;;;;;;16.33;45.42;100202.78;6178118;23;20013;-77
2024/03/23 08:43:41;;;;;;;0.00;0.00;;;;;;;16.78;43.62;100210.28;6178772;23;20017;-77
2024/03/23 08:46:10;;;;;;;0.00;0.00;;;;;;;17.03;43.48;100217.19;6151953;23;20012;-77
2024/03/23 08:48:43;;;;;;;0.00;0.00;;;;;;;18.11;41.93;100197.69;6174868;23;20051;-76
2024/03/23 08:51:10;;;;;;;0.00;0.00;;;;;;;18.77;39.35;100205.06;6180428;23;20009;-77
2024/03/23 08:53:38;;;;;;;0.00;0.00;;;;;;;19.61;38.53;100208.34;6175698;23;20059;-78
2024/03/23 08:56:10;;;;;;;0.00;0.00;;;;;;;20.97;36.63;100180.66;6182154;23;20015;-75
2024/03/23 08:58:43;;;;;;;0.00;0.00;;;;;;;20.65;36.22;100197.75;6149816;23;20099;-75
2024/03/23 09:14:16;;;;;;;0.00;0.00;;;;;;;20.82;34.37;100159.88;6002244;23;20374;-77
2024/03/23 09:16:41;;;;;;;0.00;0.00;;;;;;;19.56;35.15;100164.13;5979523;23;20012;-77
2024/03/23 09:19:09;;;;;;;0.00;0.00;;;;;;;19.44;36.29;100175.94;6035239;23;20025;-77
2024/03/23 09:21:44;;;;;;;;;;;;;;;;;;;;;
2024/03/23 09:24:10;;;;;;;0.00;0.00;;;;;;;18.95;36.54;100140.22;6209412;23;20071;-76
2024/03/23 09:26:38;;;;;;;0.00;0.00;;;;;;;20.00;36.34;100184.16;6208748;23;20888;-78
2024/03/23 09:29:03;;;;;;;0.00;0.00;;;;;;;19.42;35.98;100196.81;6208369;23;20000;-77
2024/03/23 09:31:31;;;;;;;0.00;0.00;;;;;;;17.90;38.74;100184.47;6158491;23;20067;-78
2024/03/23 09:33:59;;;;;;;0.00;0.00;;;;;;;18.47;39.16;100174.44;6135060;23;20427;-79
2024/03/23 09:36:27;;;;;;;0.00;0.00;;;;;;;17.92;38.74;100160.03;6176610;23;20031;-77
2024/03/23 09:38:53;;;;;;;0.00;0.00;;;;;;;15.64;42.35;100168.59;6194849;23;20036;-78
2024/03/23 09:41:18;;;;;;;0.00;0.00;;;;;;;14.41;45.40;100179.78;6158679;23;20004;-78
2024/03/23 09:43:44;;;;;;;0.00;0.00;;;;;;;15.34;44.57;100161.75;6186051;23;20040;-76
2024/03/23 09:46:19;;;;;;;0.00;0.00;;;;;;;15.29;44.34;100168.19;6157637;23;20091;-78
2024/03/23 10:07:57;;;;;;;0.00;0.00;;;;;;;16.76;35.68;100152.63;6202253;22;20028;-76
2024/03/23 10:28:05;;;;;;;0.10;0.10;;;;;;;14.68;41.56;100108.69;6271334;22;20027;-77
2024/03/23 10:30:31;;;;;;;0.00;0.00;;;;;;;14.31;42.86;100094.69;6241370;22;20141;-75
2024/03/23 10:33:34;;;;;;;0.10;0.10;;;;;;;15.14;41.12;100078.41;6271229;22;20085;-75
2024/03/23 10:36:00;;;;;;;0.00;0.00;;;;;;;14.47;41.46;100126.31;6269909;22;20634;-75
2024/03/23 10:38:34;;;;;;;0.00;0.00;;;;;;;12.75;47.72;100092.16;6241409;22;20014;-74
2024/03/23 10:41:03;;;;;;;0.00;0.00;;;;;;;11.55;52.72;100076.00;6268491;22;20061;-74
2024/03/23 10:43:30;;;;;;;0.00;0.00;;;;;;;10.11;57.93;100084.38;6242503;22;20010;-74
2024/03/23 10:45:59;;;;;;;0.00;0.00;;;;;;;8.93;65.67;100082.03;6243307;22;20008;-75
2024/03/23 10:48:33;;;;;;;0.00;0.00;;;;;;;7.85;78.64;100084.66;6240786;22;20110;-76
2024/03/23 10:50:59;;;;;;;0.00;0.00;;;;;;;7.34;88.66;100114.00;6218188;22;20019;-75
2024/03/23 10:53:28;;;;;;;0.10;0.10;;;;;;;6.89;93.47;100113.13;6241778;22;20398;-76
2024/03/23 10:55:58;;;;;;;0.03;0.03;;;;;;;6.35;97.07;100086.47;6269783;22;20398;-76
2024/03/23 10:58:34;;;;;;;0.00;0.00;;;;;;;6.34;100.00;100097.53;6241236;22;20007;-75
2024/03/23 11:01:00;;;;;;;0.00;0.00;;;;;;;6.58;100.00;100087.34;6242658;22;20367;-76
2024/03/23 11:03:36;;;;;;;0.00;0.00;;;;;;;8.07;100.00;100070.16;6218320;22;20011;-76
2024/03/23 11:06:05;;;;;;;0.00;0.00;;;;;;;10.35;88.36;100067.50;6242134;22;20046;-75
2024/03/23 11:08:36;;;;;;;0.00;0.00;;;;;;;10.73;75.55;100078.94;6270607;22;20043;-74
2024/03/23 11:11:24;;;;;;;0.00;0.00;;;;;;;10.08;76.15;100057.63;6269184;22;20012;-74
2024/03/23 11:13:54;;;;;;;0.00;0.00;;;;;;;10.40;75.88;100048.38;6239278;22;20091;-73
2024/03/23 11:16:32;;;;;;;0.00;0.00;;;;;;;15.74;55.37;100050.97;6241727;22;19995;-74
2024/03/23 11:19:56;;;;;;;0.00;0.00;;;;;;;16.16;48.13;100060.78;6217249;22;20019;-78
2024/03/23 11:22:37;;;;;;;0.00;0.00;;;;;;;15.02;50.08;100069.81;6241350;22;20010;-76
2024/03/23 11:25:04;;;;;;;0.00;0.00;;;;;;;15.38;47.57;100038.00;6242849;22;20418;-76
2024/03/23 11:27:29;;;;;;;0.00;0.00;;;;;;;12.87;52.50;100047.06;6216877;22;20007;-75
2024/03/23 11:30:11;;;;;;;0.00;0.00;;;;;;;10.13;62.19;100090.38;6270029;22;20004;-75
2024/03/23 11:32:37;;;;;;;0.00;0.00;;;;;;;8.40;83.64;100062.84;6243456;22;20008;-77
2024/03/23 11:35:06;;;;;;;0.00;0.00;;;;;;;8.11;91.82;100060.41;6245085;22;20087;-75
2024/03/23 11:37:31;;;;;;;0.00;0.00;;;;;;;7.95;92.95;100061.34;6219228;22;20334;-73
2024/03/23 11:39:57;;;;;;;0.00;0.00;;;;;;;8.33;94.24;100040.44;6270924;22;20464;-74
2024/03/23 11:42:25;;;;;;;0.00;0.00;;;;;;;10.97;89.89;100047.16;6245717;22;20020;-77
2024/03/23 11:44:53;;;;;;;0.00;0.00;;;;;;;15.13;70.82;100038.19;6273026;22;20008;-74
2024/03/23 11:47:21;;;;;;;0.00;0.00;;;;;;;16.75;56.91;100037.81;6270540;22;20000;-76
2024/03/23 11:49:48;;;;;;;0.00;0.00;;;;;;;15.27;54.95;100034.63;6246590;22;20430;-76
2024/03/23 11:52:16;;;;;;;0.00;0.00;;;;;;;12.93;56.94;100062.34;6217616;22;20003;-78
2024/03/23 11:54:41;;;;;;;0.10;0.10;;;;;;;11.37;62.24;100041.00;6245368;22;20095;-77
2024/03/23 11:57:10;;;;;;;0.00;0.00;;;;;;;10.40;64.92;100038.25;6221440;22;20106;-83
2024/03/23 12:00:03;;;;;;;0.00;0.00;;;;;;;10.50;66.40;100026.50;6221435;22;20018;-80
2024/03/23 12:02:40;;;;;;;0.00;0.00;;;;;;;10.78;62.43;100016.84;6244626;22;20079;-76
2024/03/23 12:13:10;;;;;;;;;;;;;;;;;;;;;
2024/03/23 12:16:37;;;;;;;0.00;0.00;;;;;;;7.13;89.25;99991.34;6128002;23;20089;-78
2024/03/23 12:19:06;;;;;;;0.00;0.00;;;;;;;6.47;97.55;99994.84;6118770;23;20108;-77
2024/03/23 12:21:31;;;;;;;0.00;0.00;;;;;;;6.50;100.00;100055.16;6122004;23;20089;-77
2024/03/23 12:24:04;;;;;;;0.00;0.00;;;;;;;6.09;100.00;100004.56;6148353;23;20009;-76
2024/03/23 12:26:42;;;;;;;0.00;0.00;;;;;;;6.15;100.00;100034.50;6146587;23;20005;-78
2024/03/23 12:29:08;;;;;;;0.10;0.10;;;;;;;5.70;100.00;99990.84;6147350;23;20056;-80
2024/03/23 12:32:18;;;;;;;;;;;;;;;;;;;;;
2024/03/23 12:35:01;;;;;;;0.00;0.00;;;;;;;5.91;100.00;99975.75;6063422;23;20054;-77